LJC6 EGAC-EGHH
Flight info
| Callsign | LJC6 |
|---|---|
| Flight time | N/A |
| Altitude | 25000 |
| Route | DUFFY L15 PEPOD Q38 SOSIM/N0307F270 Q38 MALUD L15 KEPAD L151 PEPUL Y322 BUGUP |
| Aircraft | B350/L-SDFG/S |
Departure
| Time | 2026-04-21 19:53 |
|---|---|
| Airport | George Best Belfast City Airport (EGAC) |
Arrival
| Time | N/A |
|---|---|
| Airport | Bournemouth Airport (EGHH) |
| Time | Latitude | Longitude | Altitude | Speed | Heading |
|---|---|---|---|---|---|
| 2026-04-21 19:40 | 54.61104 | -5.87673 | 17 ft | 0 kts | 159° |
| 2026-04-21 19:47 | 54.61103 | -5.87672 | 17 ft | 1 kts | 155° |
| 2026-04-21 19:47 | 54.61080 | -5.87728 | 17 ft | 14 kts | 269° |
| 2026-04-21 19:47 | 54.61081 | -5.87812 | 17 ft | 0 kts | 268° |
| 2026-04-21 19:48 | 54.61081 | -5.87817 | 17 ft | 2 kts | 268° |
| 2026-04-21 19:48 | 54.61080 | -5.87846 | 17 ft | 0 kts | 266° |
| 2026-04-21 19:50 | 54.61080 | -5.87852 | 17 ft | 3 kts | 266° |
| 2026-04-21 19:50 | 54.61099 | -5.87941 | 17 ft | 8 kts | 301° |
| 2026-04-21 19:50 | 54.61140 | -5.88027 | 17 ft | 8 kts | 338° |
| 2026-04-21 19:50 | 54.61166 | -5.88023 | 17 ft | 0 kts | 37° |
| 2026-04-21 19:52 | 54.61191 | -5.87992 | 17 ft | 33 kts | 35° |
| 2026-04-21 19:52 | 54.61662 | -5.87441 | 63 ft | 116 kts | 37° |
| 2026-04-21 19:53 | 54.62381 | -5.86732 | 710 ft | 128 kts | 34° |
| 2026-04-21 19:53 | 54.63255 | -5.85974 | 1301 ft | 150 kts | 31° |
| 2026-04-21 19:53 | 54.64218 | -5.85304 | 2086 ft | 153 kts | 31° |
| 2026-04-21 19:53 | 54.65083 | -5.84450 | 2746 ft | 140 kts | 59° |
| 2026-04-21 19:54 | 54.65494 | -5.82960 | 3269 ft | 141 kts | 80° |
| 2026-04-21 19:54 | 54.65447 | -5.81277 | 3776 ft | 146 kts | 109° |
| 2026-04-21 19:54 | 54.64771 | -5.79966 | 4305 ft | 159 kts | 145° |
| 2026-04-21 19:54 | 54.63619 | -5.79812 | 4855 ft | 180 kts | 183° |
| 2026-04-21 19:55 | 54.62405 | -5.80373 | 5455 ft | 183 kts | 187° |
| 2026-04-21 19:55 | 54.61206 | -5.80997 | 6046 ft | 183 kts | 188° |
| 2026-04-21 19:55 | 54.59983 | -5.81641 | 6627 ft | 184 kts | 188° |
| 2026-04-21 19:55 | 54.58764 | -5.82279 | 7189 ft | 184 kts | 188° |
| 2026-04-21 19:56 | 54.57532 | -5.82916 | 7742 ft | 184 kts | 187° |
| 2026-04-21 19:56 | 54.56340 | -5.82907 | 8245 ft | 169 kts | 150° |
| 2026-04-21 19:56 | 54.55312 | -5.82016 | 8742 ft | 167 kts | 144° |
| 2026-04-21 19:56 | 54.54288 | -5.81033 | 9232 ft | 169 kts | 144° |
| 2026-04-21 19:57 | 54.53263 | -5.80062 | 9716 ft | 170 kts | 145° |
| 2026-04-21 19:57 | 54.52224 | -5.79103 | 10202 ft | 171 kts | 145° |
| 2026-04-21 19:57 | 54.51167 | -5.78145 | 10683 ft | 172 kts | 146° |
| 2026-04-21 19:57 | 54.50123 | -5.77210 | 11140 ft | 173 kts | 146° |
| 2026-04-21 19:58 | 54.49040 | -5.76245 | 11593 ft | 174 kts | 146° |
| 2026-04-21 19:58 | 54.47960 | -5.75286 | 12011 ft | 176 kts | 147° |
| 2026-04-21 19:58 | 54.46872 | -5.74316 | 12476 ft | 182 kts | 147° |
| 2026-04-21 19:58 | 54.45743 | -5.73308 | 13088 ft | 183 kts | 147° |
| 2026-04-21 19:59 | 54.44634 | -5.72325 | 13724 ft | 181 kts | 147° |
| 2026-04-21 19:59 | 54.43529 | -5.71345 | 14337 ft | 179 kts | 148° |
| 2026-04-21 19:59 | 54.42425 | -5.70367 | 14879 ft | 180 kts | 148° |
| 2026-04-21 19:59 | 54.41311 | -5.69379 | 15365 ft | 182 kts | 148° |
| 2026-04-21 20:00 | 54.40194 | -5.68390 | 15835 ft | 185 kts | 148° |
| 2026-04-21 20:00 | 54.39044 | -5.67372 | 16306 ft | 186 kts | 148° |
| 2026-04-21 20:00 | 54.38033 | -5.66027 | 16747 ft | 185 kts | 130° |
| 2026-04-21 20:00 | 54.37181 | -5.64349 | 17193 ft | 186 kts | 126° |
| 2026-04-21 20:01 | 54.36367 | -5.62639 | 17650 ft | 186 kts | 127° |
| 2026-04-21 20:01 | 54.35537 | -5.60921 | 18073 ft | 188 kts | 127° |
| 2026-04-21 20:01 | 54.34691 | -5.59209 | 18484 ft | 190 kts | 128° |
| 2026-04-21 20:01 | 54.33821 | -5.57481 | 18872 ft | 192 kts | 128° |
| 2026-04-21 20:02 | 54.33242 | -5.56338 | 19114 ft | 194 kts | 128° |
| 2026-04-21 20:02 | 54.32049 | -5.53999 | 19582 ft | 198 kts | 128° |
| 2026-04-21 20:02 | 54.31145 | -5.52231 | 19931 ft | 200 kts | 129° |
| 2026-04-21 20:02 | 54.30228 | -5.50441 | 20247 ft | 203 kts | 129° |
| 2026-04-21 20:03 | 54.29291 | -5.48612 | 20581 ft | 205 kts | 129° |
| 2026-04-21 20:03 | 54.28345 | -5.46769 | 20927 ft | 206 kts | 129° |
| 2026-04-21 20:03 | 54.27397 | -5.44922 | 21231 ft | 209 kts | 129° |
| 2026-04-21 20:03 | 54.26415 | -5.43010 | 21381 ft | 220 kts | 130° |
| 2026-04-21 20:04 | 54.25364 | -5.40962 | 21402 ft | 237 kts | 130° |
| 2026-04-21 20:04 | 54.24247 | -5.38789 | 21407 ft | 253 kts | 130° |
| 2026-04-21 20:04 | 54.23059 | -5.36481 | 21409 ft | 267 kts | 130° |
| 2026-04-21 20:04 | 54.21788 | -5.34014 | 21406 ft | 280 kts | 131° |
| 2026-04-21 20:05 | 54.20467 | -5.31442 | 21406 ft | 291 kts | 131° |
| 2026-04-21 20:05 | 54.19094 | -5.28765 | 21391 ft | 301 kts | 131° |
| 2026-04-21 20:05 | 54.17695 | -5.26045 | 21398 ft | 309 kts | 131° |
| 2026-04-21 20:05 | 54.16256 | -5.23255 | 21409 ft | 316 kts | 131° |
| 2026-04-21 20:06 | 54.14807 | -5.20456 | 21390 ft | 317 kts | 131° |
| 2026-04-21 20:06 | 54.13360 | -5.17669 | 21390 ft | 316 kts | 131° |
| 2026-04-21 20:06 | 54.11888 | -5.14835 | 21396 ft | 316 kts | 131° |
| 2026-04-21 20:06 | 54.10435 | -5.12044 | 21375 ft | 316 kts | 131° |
| 2026-04-21 20:07 | 54.08952 | -5.09196 | 21382 ft | 315 kts | 131° |
| 2026-04-21 20:07 | 54.07502 | -5.06416 | 21379 ft | 316 kts | 131° |
| 2026-04-21 20:07 | 54.06536 | -5.04567 | 21383 ft | 316 kts | 131° |
| 2026-04-21 20:07 | 54.04597 | -5.00856 | 21377 ft | 316 kts | 131° |
| 2026-04-21 20:08 | 54.03136 | -4.98062 | 21394 ft | 317 kts | 131° |
| 2026-04-21 20:08 | 54.01659 | -4.95241 | 21390 ft | 317 kts | 131° |
| 2026-04-21 20:08 | 54.00197 | -4.92453 | 21391 ft | 317 kts | 131° |
| 2026-04-21 20:08 | 53.98737 | -4.89663 | 21385 ft | 317 kts | 131° |
| 2026-04-21 20:09 | 53.97322 | -4.86802 | 21386 ft | 317 kts | 128° |
| 2026-04-21 20:09 | 53.95962 | -4.83812 | 21388 ft | 317 kts | 126° |
| 2026-04-21 20:09 | 53.94656 | -4.80807 | 21386 ft | 317 kts | 126° |
| 2026-04-21 20:09 | 53.93350 | -4.77783 | 21385 ft | 317 kts | 125° |
| 2026-04-21 20:10 | 53.92067 | -4.74814 | 21382 ft | 317 kts | 125° |
| 2026-04-21 20:10 | 53.90741 | -4.71751 | 21383 ft | 317 kts | 125° |
| 2026-04-21 20:10 | 53.89433 | -4.68739 | 21380 ft | 317 kts | 125° |
| 2026-04-21 20:10 | 53.88128 | -4.65741 | 21382 ft | 317 kts | 126° |
| 2026-04-21 20:11 | 53.86810 | -4.62720 | 21383 ft | 316 kts | 126° |
| 2026-04-21 20:11 | 53.85518 | -4.59762 | 21384 ft | 316 kts | 126° |
| 2026-04-21 20:11 | 53.84197 | -4.56743 | 21378 ft | 316 kts | 126° |
| 2026-04-21 20:11 | 53.82887 | -4.53756 | 21378 ft | 316 kts | 125° |
| 2026-04-21 20:12 | 53.81574 | -4.50763 | 21379 ft | 316 kts | 125° |
| 2026-04-21 20:12 | 53.80266 | -4.47784 | 21385 ft | 316 kts | 125° |
| 2026-04-21 20:12 | 53.79406 | -4.45827 | 21385 ft | 316 kts | 125° |
| 2026-04-21 20:12 | 53.77654 | -4.41844 | 21381 ft | 315 kts | 125° |
| 2026-04-21 20:13 | 53.76336 | -4.38854 | 21383 ft | 315 kts | 125° |
| 2026-04-21 20:13 | 53.75038 | -4.35911 | 21381 ft | 315 kts | 125° |
| 2026-04-21 20:13 | 53.73737 | -4.32965 | 21386 ft | 315 kts | 126° |
| 2026-04-21 20:13 | 53.72412 | -4.29969 | 21385 ft | 315 kts | 126° |
| 2026-04-21 20:14 | 53.71107 | -4.27020 | 21381 ft | 315 kts | 126° |
| 2026-04-21 20:14 | 53.69783 | -4.24034 | 21384 ft | 314 kts | 126° |
| 2026-04-21 20:14 | 53.68464 | -4.21075 | 21383 ft | 314 kts | 126° |
| 2026-04-21 20:14 | 53.67142 | -4.18114 | 21377 ft | 314 kts | 126° |
| 2026-04-21 20:15 | 53.65838 | -4.15197 | 21378 ft | 314 kts | 126° |
| 2026-04-21 20:15 | 53.64521 | -4.12247 | 21374 ft | 314 kts | 126° |
| 2026-04-21 20:15 | 53.63207 | -4.09305 | 21375 ft | 314 kts | 126° |
| 2026-04-21 20:15 | 53.61882 | -4.06338 | 21372 ft | 315 kts | 126° |
| 2026-04-21 20:16 | 53.60566 | -4.03396 | 21379 ft | 315 kts | 126° |
| 2026-04-21 20:16 | 53.59259 | -4.00475 | 21372 ft | 315 kts | 126° |
| 2026-04-21 20:16 | 53.57935 | -3.97518 | 21379 ft | 315 kts | 126° |
| 2026-04-21 20:16 | 53.56608 | -3.94558 | 21374 ft | 315 kts | 126° |
| 2026-04-21 20:17 | 53.55291 | -3.91624 | 21373 ft | 315 kts | 126° |
| 2026-04-21 20:17 | 53.53975 | -3.88698 | 21374 ft | 315 kts | 126° |
| 2026-04-21 20:17 | 53.52637 | -3.85725 | 21377 ft | 316 kts | 126° |
| 2026-04-21 20:17 | 53.51319 | -3.82802 | 21375 ft | 316 kts | 126° |
| 2026-04-21 20:18 | 53.50419 | -3.80806 | 21388 ft | 315 kts | 126° |
| 2026-04-21 20:18 | 53.48647 | -3.76881 | 21376 ft | 315 kts | 125° |
| 2026-04-21 20:18 | 53.47315 | -3.73935 | 21376 ft | 316 kts | 125° |
| 2026-04-21 20:18 | 53.45975 | -3.70975 | 21367 ft | 316 kts | 125° |